Ash Township, Michigan
Current Conditions -  °F | °C
As of 5:31 PM on Monday 24 Nov 2014 (Local Time) from KTTF Reporting Station
Overcast Overcast  
Wind Chill: 28°   Ceiling: 3500
Heat Index: 39°   Visibility: 10mi
Dew Point: 30°   Wind: 28mph
Humidity: 70%   Direction: 230°SW
Pressure: 29.53"   Gusts: 38mph
Location:  42.051°N, 83.409°W
Report Text: KTTF 242231Z AUTO 23024G33KT 10SM SCT026 OVC035 04/M01 A2953 RMK AO2
Loading
Personal Weather Stations






























Interactive Weather Map New forecast layout! Learn more

10-Day Weather Forecast

Advertisements
Track Severe Weather on mobile